Valley Cottage, New York
Current Conditions -  °F | °C
As of 12:56 PM on Friday 21 Nov 2014 (Local Time) from KHPN Reporting Station
Few Clouds Few Clouds  
Wind Chill: 22°   Ceiling: Unl
Heat Index: 33°   Visibility: 10mi
Dew Point: 10°   Wind: 18mph
Humidity: 38%   Direction: 300°WNW
Pressure: 30.25"   Gusts: 29mph
Location:  41.11°N, 73.96°W
Report Text: KHPN 211756Z 30016G25KT 10SM FEW050 01/M12 A3025 RMK AO2 PK WND 30026/1736 SLP252 T00061122 10011 21039 51008
Loading
Personal Weather Stations






























Interactive Weather Map New forecast layout! Learn more

10-Day Weather Forecast

Advertisements
Track Severe Weather on mobile